sensor_id;sensor_type;location;lat;lon;timestamp;temperature;humidity
77523;SHT31;66637;-29.628;-49.938;2023-04-23T00:00:59;21.04;74.93
77523;SHT31;66637;-29.628;-49.938;2023-04-23T00:03:45;20.99;74.84
77523;SHT31;66637;-29.628;-49.938;2023-04-23T00:06:16;21.02;75.11
77523;SHT31;66637;-29.628;-49.938;2023-04-23T00:08:55;20.96;74.38
77523;SHT31;66637;-29.628;-49.938;2023-04-23T00:11:32;21.09;74.10
77523;SHT31;66637;-29.628;-49.938;2023-04-23T00:14:13;21.03;75.02
77523;SHT31;66637;-29.628;-49.938;2023-04-23T00:16:53;20.92;75.56
77523;SHT31;66637;-29.628;-49.938;2023-04-23T00:19:36;20.93;75.32
77523;SHT31;66637;-29.628;-49.938;2023-04-23T00:22:17;20.92;75.50
77523;SHT31;66637;-29.628;-49.938;2023-04-23T00:24:49;20.86;75.17
77523;SHT31;66637;-29.628;-49.938;2023-04-23T00:27:21;20.86;75.60
77523;SHT31;66637;-29.628;-49.938;2023-04-23T00:29:57;20.82;75.43
77523;SHT31;66637;-29.628;-49.938;2023-04-23T00:32:31;20.80;75.44
77523;SHT31;66637;-29.628;-49.938;2023-04-23T00:35:28;20.75;75.68
77523;SHT31;66637;-29.628;-49.938;2023-04-23T00:37:58;20.65;75.39
77523;SHT31;66637;-29.628;-49.938;2023-04-23T00:40:33;20.51;75.70
77523;SHT31;66637;-29.628;-49.938;2023-04-23T00:43:07;20.53;75.51
77523;SHT31;66637;-29.628;-49.938;2023-04-23T00:45:41;20.44;75.81
77523;SHT31;66637;-29.628;-49.938;2023-04-23T00:48:11;20.44;75.40
77523;SHT31;66637;-29.628;-49.938;2023-04-23T00:50:47;20.36;75.83
77523;SHT31;66637;-29.628;-49.938;2023-04-23T00:53:27;20.29;76.10
77523;SHT31;66637;-29.628;-49.938;2023-04-23T00:56:03;20.24;76.09
77523;SHT31;66637;-29.628;-49.938;2023-04-23T00:58:35;20.18;76.13
77523;SHT31;66637;-29.628;-49.938;2023-04-23T01:01:10;20.14;76.46
77523;SHT31;66637;-29.628;-49.938;2023-04-23T01:03:48;20.15;76.56
77523;SHT31;66637;-29.628;-49.938;2023-04-23T01:06:24;20.10;76.32
77523;SHT31;66637;-29.628;-49.938;2023-04-23T01:09:03;20.07;76.20
77523;SHT31;66637;-29.628;-49.938;2023-04-23T01:11:37;19.97;76.28
77523;SHT31;66637;-29.628;-49.938;2023-04-23T01:14:08;19.88;76.03
77523;SHT31;66637;-29.628;-49.938;2023-04-23T01:16:39;19.87;75.55
77523;SHT31;66637;-29.628;-49.938;2023-04-23T01:19:09;19.80;75.35
77523;SHT31;66637;-29.628;-49.938;2023-04-23T01:21:40;19.75;74.74
77523;SHT31;66637;-29.628;-49.938;2023-04-23T01:24:11;19.60;75.02
77523;SHT31;66637;-29.628;-49.938;2023-04-23T01:26:41;19.57;74.66
77523;SHT31;66637;-29.628;-49.938;2023-04-23T01:29:16;19.50;74.48
77523;SHT31;66637;-29.628;-49.938;2023-04-23T01:31:47;19.49;74.55
77523;SHT31;66637;-29.628;-49.938;2023-04-23T01:34:19;19.46;74.42
77523;SHT31;66637;-29.628;-49.938;2023-04-23T01:36:54;19.37;74.64
77523;SHT31;66637;-29.628;-49.938;2023-04-23T01:39:32;19.39;74.52
77523;SHT31;66637;-29.628;-49.938;2023-04-23T01:42:03;19.34;74.32
77523;SHT31;66637;-29.628;-49.938;2023-04-23T01:44:35;19.34;74.50
77523;SHT31;66637;-29.628;-49.938;2023-04-23T01:47:08;19.27;74.41
77523;SHT31;66637;-29.628;-49.938;2023-04-23T01:49:39;19.27;74.58
77523;SHT31;66637;-29.628;-49.938;2023-04-23T01:52:10;19.30;74.42
77523;SHT31;66637;-29.628;-49.938;2023-04-23T01:54:41;19.24;74.31
77523;SHT31;66637;-29.628;-49.938;2023-04-23T01:57:15;19.23;74.23
77523;SHT31;66637;-29.628;-49.938;2023-04-23T02:00:09;19.26;74.32
77523;SHT31;66637;-29.628;-49.938;2023-04-23T02:02:47;19.23;74.22
77523;SHT31;66637;-29.628;-49.938;2023-04-23T02:05:27;19.16;74.32
77523;SHT31;66637;-29.628;-49.938;2023-04-23T02:08:02;19.16;73.73
77523;SHT31;66637;-29.628;-49.938;2023-04-23T02:10:41;19.09;73.50
77523;SHT31;66637;-29.628;-49.938;2023-04-23T02:13:18;19.05;73.51
77523;SHT31;66637;-29.628;-49.938;2023-04-23T02:15:51;19.08;73.48
77523;SHT31;66637;-29.628;-49.938;2023-04-23T02:18:24;18.92;73.91
77523;SHT31;66637;-29.628;-49.938;2023-04-23T02:20:55;18.98;73.91
77523;SHT31;66637;-29.628;-49.938;2023-04-23T02:23:29;18.92;73.88
77523;SHT31;66637;-29.628;-49.938;2023-04-23T02:25:59;18.99;74.11
77523;SHT31;66637;-29.628;-49.938;2023-04-23T02:28:30;19.08;73.40
77523;SHT31;66637;-29.628;-49.938;2023-04-23T02:31:01;19.10;73.51
77523;SHT31;66637;-29.628;-49.938;2023-04-23T02:33:35;19.18;73.38
77523;SHT31;66637;-29.628;-49.938;2023-04-23T02:36:05;19.19;73.54
77523;SHT31;66637;-29.628;-49.938;2023-04-23T02:38:36;19.13;73.75
77523;SHT31;66637;-29.628;-49.938;2023-04-23T02:41:07;19.19;73.84
77523;SHT31;66637;-29.628;-49.938;2023-04-23T02:43:38;19.19;74.05
77523;SHT31;66637;-29.628;-49.938;2023-04-23T02:46:09;19.22;73.74
77523;SHT31;66637;-29.628;-49.938;2023-04-23T02:48:40;19.26;73.49
77523;SHT31;66637;-29.628;-49.938;2023-04-23T02:51:13;19.29;73.34
77523;SHT31;66637;-29.628;-49.938;2023-04-23T02:53:43;19.20;73.67
77523;SHT31;66637;-29.628;-49.938;2023-04-23T02:56:14;19.29;73.81
77523;SHT31;66637;-29.628;-49.938;2023-04-23T02:58:44;19.29;73.47
77523;SHT31;66637;-29.628;-49.938;2023-04-23T03:01:15;19.24;73.51
77523;SHT31;66637;-29.628;-49.938;2023-04-23T03:03:46;19.29;73.66
77523;SHT31;66637;-29.628;-49.938;2023-04-23T03:06:17;19.29;73.66
77523;SHT31;66637;-29.628;-49.938;2023-04-23T03:08:49;19.32;73.52
77523;SHT31;66637;-29.628;-49.938;2023-04-23T03:11:20;19.34;73.70
77523;SHT31;66637;-29.628;-49.938;2023-04-23T03:13:59;19.32;73.60
77523;SHT31;66637;-29.628;-49.938;2023-04-23T03:16:36;19.30;73.97
77523;SHT31;66637;-29.628;-49.938;2023-04-23T03:19:07;19.33;73.63
77523;SHT31;66637;-29.628;-49.938;2023-04-23T03:21:43;19.32;73.92
77523;SHT31;66637;-29.628;-49.938;2023-04-23T03:24:17;19.34;73.60
77523;SHT31;66637;-29.628;-49.938;2023-04-23T03:26:49;19.30;74.06
77523;SHT31;66637;-29.628;-49.938;2023-04-23T03:29:23;19.34;74.15
77523;SHT31;66637;-29.628;-49.938;2023-04-23T03:31:56;19.32;74.18
77523;SHT31;66637;-29.628;-49.938;2023-04-23T03:34:30;19.36;74.20
77523;SHT31;66637;-29.628;-49.938;2023-04-23T03:37:05;19.34;74.40
77523;SHT31;66637;-29.628;-49.938;2023-04-23T03:39:37;19.37;74.23
77523;SHT31;66637;-29.628;-49.938;2023-04-23T03:42:10;19.36;74.06
77523;SHT31;66637;-29.628;-49.938;2023-04-23T03:44:41;19.22;74.77
77523;SHT31;66637;-29.628;-49.938;2023-04-23T03:47:17;19.23;74.62
77523;SHT31;66637;-29.628;-49.938;2023-04-23T03:49:49;19.16;74.83
77523;SHT31;66637;-29.628;-49.938;2023-04-23T03:52:22;19.16;74.68
77523;SHT31;66637;-29.628;-49.938;2023-04-23T03:54:53;19.09;75.16
77523;SHT31;66637;-29.628;-49.938;2023-04-23T03:57:30;19.03;75.15
77523;SHT31;66637;-29.628;-49.938;2023-04-23T04:00:17;19.06;75.50
77523;SHT31;66637;-29.628;-49.938;2023-04-23T04:02:48;19.02;75.68
77523;SHT31;66637;-29.628;-49.938;2023-04-23T04:05:22;18.99;75.86
77523;SHT31;66637;-29.628;-49.938;2023-04-23T04:08:05;18.92;75.99
77523;SHT31;66637;-29.628;-49.938;2023-04-23T04:10:39;18.94;76.03
77523;SHT31;66637;-29.628;-49.938;2023-04-23T04:13:11;18.88;75.76
77523;SHT31;66637;-29.628;-49.938;2023-04-23T04:15:45;18.89;75.92
77523;SHT31;66637;-29.628;-49.938;2023-04-23T04:18:16;18.84;76.03
77523;SHT31;66637;-29.628;-49.938;2023-04-23T04:20:46;18.78;76.11
77523;SHT31;66637;-29.628;-49.938;2023-04-23T04:23:17;18.79;76.35
77523;SHT31;66637;-29.628;-49.938;2023-04-23T04:25:50;18.76;76.38
77523;SHT31;66637;-29.628;-49.938;2023-04-23T04:28:25;18.75;76.63
77523;SHT31;66637;-29.628;-49.938;2023-04-23T04:31:08;18.75;76.59
77523;SHT31;66637;-29.628;-49.938;2023-04-23T04:33:48;18.78;76.79
77523;SHT31;66637;-29.628;-49.938;2023-04-23T04:36:23;18.73;77.12
77523;SHT31;66637;-29.628;-49.938;2023-04-23T04:38:56;18.78;76.86
77523;SHT31;66637;-29.628;-49.938;2023-04-23T04:41:31;18.72;76.93
77523;SHT31;66637;-29.628;-49.938;2023-04-23T04:44:02;18.67;77.03
77523;SHT31;66637;-29.628;-49.938;2023-04-23T04:46:32;18.65;76.87
77523;SHT31;66637;-29.628;-49.938;2023-04-23T04:49:11;18.73;76.88
77523;SHT31;66637;-29.628;-49.938;2023-04-23T04:51:44;18.64;77.29
77523;SHT31;66637;-29.628;-49.938;2023-04-23T04:54:17;18.67;77.04
77523;SHT31;66637;-29.628;-49.938;2023-04-23T04:56:49;18.65;77.30
77523;SHT31;66637;-29.628;-49.938;2023-04-23T04:59:23;18.62;77.53
77523;SHT31;66637;-29.628;-49.938;2023-04-23T05:01:57;18.58;77.22
77523;SHT31;66637;-29.628;-49.938;2023-04-23T05:04:29;18.54;77.04
77523;SHT31;66637;-29.628;-49.938;2023-04-23T05:07:01;18.52;77.48
77523;SHT31;66637;-29.628;-49.938;2023-04-23T05:09:32;18.47;77.51
77523;SHT31;66637;-29.628;-49.938;2023-04-23T05:12:04;18.47;77.72
77523;SHT31;66637;-29.628;-49.938;2023-04-23T05:14:36;18.40;77.02
77523;SHT31;66637;-29.628;-49.938;2023-04-23T05:17:08;18.31;76.88
77523;SHT31;66637;-29.628;-49.938;2023-04-23T05:19:40;18.36;77.50
77523;SHT31;66637;-29.628;-49.938;2023-04-23T05:22:12;18.43;77.76
77523;SHT31;66637;-29.628;-49.938;2023-04-23T05:24:43;18.41;77.60
77523;SHT31;66637;-29.628;-49.938;2023-04-23T05:27:15;18.45;77.73
77523;SHT31;66637;-29.628;-49.938;2023-04-23T05:29:49;18.47;78.08
77523;SHT31;66637;-29.628;-49.938;2023-04-23T05:32:22;18.34;77.31
77523;SHT31;66637;-29.628;-49.938;2023-04-23T05:34:59;18.33;78.12
77523;SHT31;66637;-29.628;-49.938;2023-04-23T05:37:32;18.30;78.36
77523;SHT31;66637;-29.628;-49.938;2023-04-23T05:40:04;18.30;77.99
77523;SHT31;66637;-29.628;-49.938;2023-04-23T05:42:36;18.33;78.70
77523;SHT31;66637;-29.628;-49.938;2023-04-23T05:45:08;18.40;79.00
77523;SHT31;66637;-29.628;-49.938;2023-04-23T05:47:41;18.58;79.80
77523;SHT31;66637;-29.628;-49.938;2023-04-23T05:50:12;18.68;79.66
77523;SHT31;66637;-29.628;-49.938;2023-04-23T05:52:48;18.89;80.91
77523;SHT31;66637;-29.628;-49.938;2023-04-23T05:55:20;19.12;81.05
77523;SHT31;66637;-29.628;-49.938;2023-04-23T05:57:56;19.23;80.79
77523;SHT31;66637;-29.628;-49.938;2023-04-23T06:00:28;19.36;81.11
77523;SHT31;66637;-29.628;-49.938;2023-04-23T06:02:59;19.53;81.38
77523;SHT31;66637;-29.628;-49.938;2023-04-23T06:05:33;19.62;81.29
77523;SHT31;66637;-29.628;-49.938;2023-04-23T06:08:06;19.67;80.96
77523;SHT31;66637;-29.628;-49.938;2023-04-23T06:10:37;19.70;81.14
77523;SHT31;66637;-29.628;-49.938;2023-04-23T06:13:11;19.77;81.11
77523;SHT31;66637;-29.628;-49.938;2023-04-23T06:15:42;19.81;81.30
77523;SHT31;66637;-29.628;-49.938;2023-04-23T06:18:13;19.85;81.30
77523;SHT31;66637;-29.628;-49.938;2023-04-23T06:20:48;19.88;81.14
77523;SHT31;66637;-29.628;-49.938;2023-04-23T06:23:21;19.95;81.19
77523;SHT31;66637;-29.628;-49.938;2023-04-23T06:25:53;20.03;81.12
77523;SHT31;66637;-29.628;-49.938;2023-04-23T06:28:23;20.14;81.00
77523;SHT31;66637;-29.628;-49.938;2023-04-23T06:31:20;20.17;80.59
77523;SHT31;66637;-29.628;-49.938;2023-04-23T06:33:54;20.21;80.48
77523;SHT31;66637;-29.628;-49.938;2023-04-23T06:36:25;20.25;80.66
77523;SHT31;66637;-29.628;-49.938;2023-04-23T06:39:00;20.21;80.69
77523;SHT31;66637;-29.628;-49.938;2023-04-23T06:41:33;20.18;80.88
77523;SHT31;66637;-29.628;-49.938;2023-04-23T06:44:13;20.10;80.74
77523;SHT31;66637;-29.628;-49.938;2023-04-23T06:46:53;20.07;80.46
77523;SHT31;66637;-29.628;-49.938;2023-04-23T06:49:30;20.04;80.37
77523;SHT31;66637;-29.628;-49.938;2023-04-23T06:52:01;19.98;80.19
77523;SHT31;66637;-29.628;-49.938;2023-04-23T06:54:32;20.03;80.24
77523;SHT31;66637;-29.628;-49.938;2023-04-23T06:57:02;19.97;80.10
77523;SHT31;66637;-29.628;-49.938;2023-04-23T06:59:33;19.93;80.06
77523;SHT31;66637;-29.628;-49.938;2023-04-23T07:02:06;19.93;79.91
77523;SHT31;66637;-29.628;-49.938;2023-04-23T07:04:38;19.78;79.78
77523;SHT31;66637;-29.628;-49.938;2023-04-23T07:07:12;19.67;79.42
77523;SHT31;66637;-29.628;-49.938;2023-04-23T07:09:43;19.54;79.15
77523;SHT31;66637;-29.628;-49.938;2023-04-23T07:12:17;19.42;79.44
77523;SHT31;66637;-29.628;-49.938;2023-04-23T07:14:49;19.22;79.65
77523;SHT31;66637;-29.628;-49.938;2023-04-23T07:17:26;19.03;79.64
77523;SHT31;66637;-29.628;-49.938;2023-04-23T07:19:59;18.95;79.66
77523;SHT31;66637;-29.628;-49.938;2023-04-23T07:22:34;18.81;79.71
77523;SHT31;66637;-29.628;-49.938;2023-04-23T07:25:12;18.75;79.51
77523;SHT31;66637;-29.628;-49.938;2023-04-23T07:27:44;18.67;79.05
77523;SHT31;66637;-29.628;-49.938;2023-04-23T07:30:14;18.57;79.10
77523;SHT31;66637;-29.628;-49.938;2023-04-23T07:32:47;18.45;78.78
77523;SHT31;66637;-29.628;-49.938;2023-04-23T07:35:19;18.36;78.33
77523;SHT31;66637;-29.628;-49.938;2023-04-23T07:37:53;18.26;78.69
77523;SHT31;66637;-29.628;-49.938;2023-04-23T07:40:25;18.24;78.70
77523;SHT31;66637;-29.628;-49.938;2023-04-23T07:43:01;18.23;78.55
77523;SHT31;66637;-29.628;-49.938;2023-04-23T07:45:34;18.20;78.10
77523;SHT31;66637;-29.628;-49.938;2023-04-23T07:48:05;18.13;78.24
77523;SHT31;66637;-29.628;-49.938;2023-04-23T07:50:36;18.04;78.40
77523;SHT31;66637;-29.628;-49.938;2023-04-23T07:53:09;18.00;78.71
77523;SHT31;66637;-29.628;-49.938;2023-04-23T07:55:41;17.89;79.01
77523;SHT31;66637;-29.628;-49.938;2023-04-23T07:58:12;17.90;78.66
77523;SHT31;66637;-29.628;-49.938;2023-04-23T08:00:42;17.89;78.55
77523;SHT31;66637;-29.628;-49.938;2023-04-23T08:03:13;17.86;78.48
77523;SHT31;66637;-29.628;-49.938;2023-04-23T08:05:48;17.85;78.45
77523;SHT31;66637;-29.628;-49.938;2023-04-23T08:08:19;17.83;78.26
77523;SHT31;66637;-29.628;-49.938;2023-04-23T08:10:50;17.75;77.96
77523;SHT31;66637;-29.628;-49.938;2023-04-23T08:13:22;17.75;77.90
77523;SHT31;66637;-29.628;-49.938;2023-04-23T08:15:55;17.70;77.85
77523;SHT31;66637;-29.628;-49.938;2023-04-23T08:18:27;17.69;77.65
77523;SHT31;66637;-29.628;-49.938;2023-04-23T08:21:06;17.69;77.52
77523;SHT31;66637;-29.628;-49.938;2023-04-23T08:23:38;17.56;77.46
77523;SHT31;66637;-29.628;-49.938;2023-04-23T08:26:09;17.57;77.60
77523;SHT31;66637;-29.628;-49.938;2023-04-23T08:28:41;17.50;77.35
77523;SHT31;66637;-29.628;-49.938;2023-04-23T08:31:14;17.56;77.44
77523;SHT31;66637;-29.628;-49.938;2023-04-23T08:33:54;17.53;77.15
77523;SHT31;66637;-29.628;-49.938;2023-04-23T08:36:25;17.50;76.90
77523;SHT31;66637;-29.628;-49.938;2023-04-23T08:38:57;17.50;77.07
77523;SHT31;66637;-29.628;-49.938;2023-04-23T08:41:38;17.50;76.81
77523;SHT31;66637;-29.628;-49.938;2023-04-23T08:44:16;17.46;77.07
77523;SHT31;66637;-29.628;-49.938;2023-04-23T08:46:47;17.42;77.14
77523;SHT31;66637;-29.628;-49.938;2023-04-23T08:49:18;17.40;77.38
77523;SHT31;66637;-29.628;-49.938;2023-04-23T08:51:52;17.40;78.12
77523;SHT31;66637;-29.628;-49.938;2023-04-23T08:54:27;17.42;77.33
77523;SHT31;66637;-29.628;-49.938;2023-04-23T08:56:58;17.39;77.49
77523;SHT31;66637;-29.628;-49.938;2023-04-23T08:59:30;17.32;77.63
77523;SHT31;66637;-29.628;-49.938;2023-04-23T09:02:03;17.39;77.50
77523;SHT31;66637;-29.628;-49.938;2023-04-23T09:04:41;17.35;77.39
77523;SHT31;66637;-29.628;-49.938;2023-04-23T09:07:11;17.38;77.32
77523;SHT31;66637;-29.628;-49.938;2023-04-23T09:09:43;17.35;77.19
77523;SHT31;66637;-29.628;-49.938;2023-04-23T09:12:14;17.33;77.00
77523;SHT31;66637;-29.628;-49.938;2023-04-23T09:14:49;17.29;77.49
77523;SHT31;66637;-29.628;-49.938;2023-04-23T09:17:22;17.25;77.38
77523;SHT31;66637;-29.628;-49.938;2023-04-23T09:19:54;17.25;77.21
77523;SHT31;66637;-29.628;-49.938;2023-04-23T09:22:42;17.25;77.55
77523;SHT31;66637;-29.628;-49.938;2023-04-23T09:25:17;17.23;77.28
77523;SHT31;66637;-29.628;-49.938;2023-04-23T09:27:50;17.16;77.13
77523;SHT31;66637;-29.628;-49.938;2023-04-23T09:30:21;17.16;77.10
77523;SHT31;66637;-29.628;-49.938;2023-04-23T09:32:54;17.22;77.21
77523;SHT31;66637;-29.628;-49.938;2023-04-23T09:35:26;17.18;77.16
77523;SHT31;66637;-29.628;-49.938;2023-04-23T09:37:58;17.16;77.24
77523;SHT31;66637;-29.628;-49.938;2023-04-23T09:40:35;17.19;77.01
77523;SHT31;66637;-29.628;-49.938;2023-04-23T09:43:09;17.16;77.26
77523;SHT31;66637;-29.628;-49.938;2023-04-23T09:45:49;17.16;77.16
77523;SHT31;66637;-29.628;-49.938;2023-04-23T09:48:20;17.15;77.31
77523;SHT31;66637;-29.628;-49.938;2023-04-23T09:50:51;17.18;77.42
77523;SHT31;66637;-29.628;-49.938;2023-04-23T09:53:25;17.16;77.30
77523;SHT31;66637;-29.628;-49.938;2023-04-23T09:55:58;17.22;77.19
77523;SHT31;66637;-29.628;-49.938;2023-04-23T09:58:29;17.16;77.30
77523;SHT31;66637;-29.628;-49.938;2023-04-23T10:01:08;17.18;77.49
77523;SHT31;66637;-29.628;-49.938;2023-04-23T10:03:43;17.23;77.22
77523;SHT31;66637;-29.628;-49.938;2023-04-23T10:06:14;17.25;77.18
77523;SHT31;66637;-29.628;-49.938;2023-04-23T10:09:05;17.25;76.96
77523;SHT31;66637;-29.628;-49.938;2023-04-23T10:11:37;17.32;77.07
77523;SHT31;66637;-29.628;-49.938;2023-04-23T10:14:07;17.40;76.83
77523;SHT31;66637;-29.628;-49.938;2023-04-23T10:16:45;17.49;76.71
77523;SHT31;66637;-29.628;-49.938;2023-04-23T10:19:22;17.53;76.45
77523;SHT31;66637;-29.628;-49.938;2023-04-23T10:21:58;17.57;76.71
77523;SHT31;66637;-29.628;-49.938;2023-04-23T10:24:51;17.63;76.59
77523;SHT31;66637;-29.628;-49.938;2023-04-23T10:27:30;17.73;76.44
77523;SHT31;66637;-29.628;-49.938;2023-04-23T10:30:19;17.86;76.23
77523;SHT31;66637;-29.628;-49.938;2023-04-23T10:32:52;17.90;76.05
77523;SHT31;66637;-29.628;-49.938;2023-04-23T10:35:23;18.01;75.80
77523;SHT31;66637;-29.628;-49.938;2023-04-23T10:37:58;18.17;75.75
77523;SHT31;66637;-29.628;-49.938;2023-04-23T10:40:31;18.31;75.56
77523;SHT31;66637;-29.628;-49.938;2023-04-23T10:43:04;18.43;75.30
77523;SHT31;66637;-29.628;-49.938;2023-04-23T10:45:34;18.52;75.08
77523;SHT31;66637;-29.628;-49.938;2023-04-23T10:48:04;18.68;74.47
77523;SHT31;66637;-29.628;-49.938;2023-04-23T10:50:37;19.20;73.50
77523;SHT31;66637;-29.628;-49.938;2023-04-23T10:53:31;23.86;60.38
77523;SHT31;66637;-29.628;-49.938;2023-04-23T10:56:06;26.14;52.21
77523;SHT31;66637;-29.628;-49.938;2023-04-23T10:58:49;27.46;49.51
77523;SHT31;66637;-29.628;-49.938;2023-04-23T11:01:23;28.91;48.29
77523;SHT31;66637;-29.628;-49.938;2023-04-23T11:03:55;28.41;45.69
77523;SHT31;66637;-29.628;-49.938;2023-04-23T11:09:38;27.50;49.49
77523;SHT31;66637;-29.628;-49.938;2023-04-23T11:12:12;25.99;54.15
77523;SHT31;66637;-29.628;-49.938;2023-04-23T11:14:47;25.03;58.02
77523;SHT31;66637;-29.628;-49.938;2023-04-23T11:22:41;24.57;61.09
77523;SHT31;66637;-29.628;-49.938;2023-04-23T11:25:14;24.64;61.24
77523;SHT31;66637;-29.628;-49.938;2023-04-23T11:27:46;24.86;61.68
77523;SHT31;66637;-29.628;-49.938;2023-04-23T11:30:24;25.06;60.47
77523;SHT31;66637;-29.628;-49.938;2023-04-23T11:32:58;25.10;61.42
77523;SHT31;66637;-29.628;-49.938;2023-04-23T11:35:30;25.22;61.25
77523;SHT31;66637;-29.628;-49.938;2023-04-23T11:38:09;25.30;62.74
77523;SHT31;66637;-29.628;-49.938;2023-04-23T11:40:40;25.22;62.35
77523;SHT31;66637;-29.628;-49.938;2023-04-23T11:43:17;25.45;61.21
77523;SHT31;66637;-29.628;-49.938;2023-04-23T11:45:51;25.69;62.32
77523;SHT31;66637;-29.628;-49.938;2023-04-23T11:48:23;25.82;62.82
77523;SHT31;66637;-29.628;-49.938;2023-04-23T11:50:55;25.81;61.05
77523;SHT31;66637;-29.628;-49.938;2023-04-23T11:53:26;25.90;62.39
77523;SHT31;66637;-29.628;-49.938;2023-04-23T11:55:57;26.07;60.69
77523;SHT31;66637;-29.628;-49.938;2023-04-23T11:58:28;26.13;60.65
77523;SHT31;66637;-29.628;-49.938;2023-04-23T12:00:59;26.22;60.69
77523;SHT31;66637;-29.628;-49.938;2023-04-23T12:03:31;26.33;60.85
77523;SHT31;66637;-29.628;-49.938;2023-04-23T12:06:17;26.46;60.32
77523;SHT31;66637;-29.628;-49.938;2023-04-23T12:08:47;26.26;59.95
77523;SHT31;66637;-29.628;-49.938;2023-04-23T12:11:18;26.29;61.81
77523;SHT31;66637;-29.628;-49.938;2023-04-23T12:13:54;26.41;61.02
77523;SHT31;66637;-29.628;-49.938;2023-04-23T12:16:36;26.61;60.27
77523;SHT31;66637;-29.628;-49.938;2023-04-23T12:19:30;26.41;60.20
77523;SHT31;66637;-29.628;-49.938;2023-04-23T12:22:05;26.61;60.22
77523;SHT31;66637;-29.628;-49.938;2023-04-23T12:24:48;26.29;61.30
77523;SHT31;66637;-29.628;-49.938;2023-04-23T12:27:40;26.61;60.22
77523;SHT31;66637;-29.628;-49.938;2023-04-23T12:30:11;26.91;60.11
77523;SHT31;66637;-29.628;-49.938;2023-04-23T12:32:41;26.70;59.24
77523;SHT31;66637;-29.628;-49.938;2023-04-23T12:38:41;26.85;59.57
77523;SHT31;66637;-29.628;-49.938;2023-04-23T12:41:12;26.46;59.97
77523;SHT31;66637;-29.628;-49.938;2023-04-23T12:43:43;26.85;59.99
77523;SHT31;66637;-29.628;-49.938;2023-04-23T12:46:17;27.42;59.51
77523;SHT31;66637;-29.628;-49.938;2023-04-23T12:48:47;26.94;58.51
77523;SHT31;66637;-29.628;-49.938;2023-04-23T12:51:19;26.91;60.23
77523;SHT31;66637;-29.628;-49.938;2023-04-23T12:54:04;27.04;61.06
77523;SHT31;66637;-29.628;-49.938;2023-04-23T12:56:39;27.08;60.79
77523;SHT31;66637;-29.628;-49.938;2023-04-23T12:59:10;27.14;59.20
77523;SHT31;66637;-29.628;-49.938;2023-04-23T13:01:40;27.18;60.92
77523;SHT31;66637;-29.628;-49.938;2023-04-23T13:04:11;27.12;59.06
77523;SHT31;66637;-29.628;-49.938;2023-04-23T13:06:43;27.21;59.58
77523;SHT31;66637;-29.628;-49.938;2023-04-23T13:09:14;27.27;58.72
77523;SHT31;66637;-29.628;-49.938;2023-04-23T13:11:44;27.39;59.39
77523;SHT31;66637;-29.628;-49.938;2023-04-23T13:14:18;27.45;57.81
77523;SHT31;66637;-29.628;-49.938;2023-04-23T13:16:49;27.37;58.74
77523;SHT31;66637;-29.628;-49.938;2023-04-23T13:19:21;27.31;58.29
77523;SHT31;66637;-29.628;-49.938;2023-04-23T13:21:52;27.39;58.43
77523;SHT31;66637;-29.628;-49.938;2023-04-23T13:24:22;27.31;57.88
77523;SHT31;66637;-29.628;-49.938;2023-04-23T13:26:52;27.25;58.55
77523;SHT31;66637;-29.628;-49.938;2023-04-23T13:29:24;27.50;57.48
77523;SHT31;66637;-29.628;-49.938;2023-04-23T13:31:59;27.28;58.16
77523;SHT31;66637;-29.628;-49.938;2023-04-23T13:34:31;27.46;57.92
77523;SHT31;66637;-29.628;-49.938;2023-04-23T13:37:04;27.60;57.94
77523;SHT31;66637;-29.628;-49.938;2023-04-23T13:39:38;27.88;56.83
77523;SHT31;66637;-29.628;-49.938;2023-04-23T13:42:09;27.83;56.93
77523;SHT31;66637;-29.628;-49.938;2023-04-23T13:44:40;27.89;57.42
77523;SHT31;66637;-29.628;-49.938;2023-04-23T13:47:12;27.86;56.24
77523;SHT31;66637;-29.628;-49.938;2023-04-23T13:49:43;27.70;56.32
77523;SHT31;66637;-29.628;-49.938;2023-04-23T13:52:13;27.43;57.30
77523;SHT31;66637;-29.628;-49.938;2023-04-23T13:54:43;26.94;58.02
77523;SHT31;66637;-29.628;-49.938;2023-04-23T13:57:19;27.21;59.48
77523;SHT31;66637;-29.628;-49.938;2023-04-23T13:59:54;27.39;56.53
77523;SHT31;66637;-29.628;-49.938;2023-04-23T14:02:24;27.49;57.40
77523;SHT31;66637;-29.628;-49.938;2023-04-23T14:04:55;27.41;56.60
77523;SHT31;66637;-29.628;-49.938;2023-04-23T14:07:27;27.32;56.42
77523;SHT31;66637;-29.628;-49.938;2023-04-23T14:09:57;27.52;55.83
77523;SHT31;66637;-29.628;-49.938;2023-04-23T14:12:28;27.79;56.27
77523;SHT31;66637;-29.628;-49.938;2023-04-23T14:14:59;27.79;54.67
77523;SHT31;66637;-29.628;-49.938;2023-04-23T14:17:30;27.90;54.10
77523;SHT31;66637;-29.628;-49.938;2023-04-23T14:20:04;27.70;55.55
77523;SHT31;66637;-29.628;-49.938;2023-04-23T14:22:35;28.04;54.11
77523;SHT31;66637;-29.628;-49.938;2023-04-23T14:25:29;28.41;54.64
77523;SHT31;66637;-29.628;-49.938;2023-04-23T14:28:15;28.55;54.24
77523;SHT31;66637;-29.628;-49.938;2023-04-23T14:30:56;28.67;55.30
77523;SHT31;66637;-29.628;-49.938;2023-04-23T14:33:28;28.43;54.81
77523;SHT31;66637;-29.628;-49.938;2023-04-23T14:35:58;28.37;53.33
77523;SHT31;66637;-29.628;-49.938;2023-04-23T14:38:29;28.36;54.11
77523;SHT31;66637;-29.628;-49.938;2023-04-23T14:41:00;28.34;53.78
77523;SHT31;66637;-29.628;-49.938;2023-04-23T14:43:31;28.27;54.20
77523;SHT31;66637;-29.628;-49.938;2023-04-23T14:46:01;28.44;53.87
77523;SHT31;66637;-29.628;-49.938;2023-04-23T14:48:35;28.50;54.06
77523;SHT31;66637;-29.628;-49.938;2023-04-23T14:51:05;28.64;52.30
77523;SHT31;66637;-29.628;-49.938;2023-04-23T14:53:35;28.65;53.44
77523;SHT31;66637;-29.628;-49.938;2023-04-23T14:56:06;28.81;51.90
77523;SHT31;66637;-29.628;-49.938;2023-04-23T14:58:36;28.68;52.65
77523;SHT31;66637;-29.628;-49.938;2023-04-23T15:01:10;28.58;53.23
77523;SHT31;66637;-29.628;-49.938;2023-04-23T15:03:42;28.61;54.03
77523;SHT31;66637;-29.628;-49.938;2023-04-23T15:06:14;28.64;54.66
77523;SHT31;66637;-29.628;-49.938;2023-04-23T15:08:45;28.61;53.84
77523;SHT31;66637;-29.628;-49.938;2023-04-23T15:11:15;28.40;54.84
77523;SHT31;66637;-29.628;-49.938;2023-04-23T15:13:55;28.40;55.05
77523;SHT31;66637;-29.628;-49.938;2023-04-23T15:16:31;28.33;55.57
77523;SHT31;66637;-29.628;-49.938;2023-04-23T15:19:17;28.28;55.36
77523;SHT31;66637;-29.628;-49.938;2023-04-23T15:21:47;28.34;55.18
77523;SHT31;66637;-29.628;-49.938;2023-04-23T15:24:17;28.34;55.15
77523;SHT31;66637;-29.628;-49.938;2023-04-23T15:26:47;28.51;56.26
77523;SHT31;66637;-29.628;-49.938;2023-04-23T15:29:18;28.45;55.95
77523;SHT31;66637;-29.628;-49.938;2023-04-23T15:31:48;28.33;56.70
77523;SHT31;66637;-29.628;-49.938;2023-04-23T15:34:20;28.37;56.64
77523;SHT31;66637;-29.628;-49.938;2023-04-23T15:36:51;28.34;55.92
77523;SHT31;66637;-29.628;-49.938;2023-04-23T15:39:21;28.25;56.21